Time;durP1;ratioP1;P1;durP2;ratioP2;P2;SDS_P1;SDS_P2;PMS_P1;PMS_P2;Temp;Humidity;BMP_temperature;BMP_pressure;BME280_temperature;BME280_humidity;BME280_pressure;Samples;Min_cycle;Max_cycle;Signal;HPM_P1;HPM_P2
2020/12/07 00:00:11;;;;;;;3.90;2.17;;;154.20;2124.80;;;;;;5077234;28;20056;-74
2020/12/07 00:02:37;;;;;;;6.00;2.78;;;154.20;2124.80;;;;;;5077449;28;20395;-74
2020/12/07 00:05:04;;;;;;;6.70;2.70;;;154.30;2124.80;;;;;;5076928;28;20032;-73
2020/12/07 00:07:29;;;;;;;4.75;1.80;;;154.30;2099.20;;;;;;5077059;28;20059;-74
2020/12/07 00:09:55;;;;;;;8.77;2.25;;;154.30;2099.20;;;;;;5076804;28;20028;-74
2020/12/07 00:12:32;;;;;;;5.35;1.90;;;154.30;2099.20;;;;;;5076552;28;20085;-74
2020/12/07 00:14:59;;;;;;;8.88;2.42;;;154.30;2099.20;;;;;;5059229;28;20032;-74
2020/12/07 00:17:26;;;;;;;4.38;2.05;;;154.30;2099.20;;;;;;5077174;28;20029;-73
2020/12/07 00:19:52;;;;;;;5.38;1.92;;;154.30;2099.20;;;;;;5077527;28;20035;-74
2020/12/07 00:22:22;;;;;;;2.88;1.60;;;154.40;2099.20;;;;;;5076962;28;20032;-74
2020/12/07 00:24:48;;;;;;;4.78;2.08;;;154.40;2099.20;;;;;;5077296;28;20396;-74
2020/12/07 00:27:23;;;;;;;5.40;2.17;;;154.50;2099.20;;;;;;5076429;28;20312;-74
2020/12/07 00:29:50;;;;;;;4.05;2.10;;;154.50;2073.60;;;;;;5076699;28;20020;-74
2020/12/07 00:32:17;;;;;;;3.55;1.90;;;154.50;2099.20;;;;;;5076721;28;20033;-74
2020/12/07 00:34:43;;;;;;;5.20;2.00;;;154.50;2099.20;;;;;;5076455;28;20139;-74
2020/12/07 00:37:09;;;;;;;3.45;1.83;;;154.50;2073.60;;;;;;5076664;28;20115;-74
2020/12/07 00:39:36;;;;;;;8.18;2.13;;;154.50;2099.20;;;;;;5076672;28;20025;-73
2020/12/07 00:42:03;;;;;;;5.20;3.05;;;154.40;2099.20;;;;;;5076690;28;20053;-73
2020/12/07 00:44:29;;;;;;;6.82;1.90;;;154.40;2099.20;;;;;;5076370;28;20452;-74
2020/12/07 00:46:55;;;;;;;3.88;1.83;;;154.40;2099.20;;;;;;5076160;28;20036;-73
2020/12/07 00:49:21;;;;;;;4.55;1.80;;;154.40;2099.20;;;;;;5076335;28;20346;-73
2020/12/07 00:51:48;;;;;;;2.88;1.50;;;154.30;2073.60;;;;;;5076375;28;20032;-73
2020/12/07 00:54:15;;;;;;;9.27;1.90;;;154.30;2073.60;;;;;;5076532;28;20032;-74
2020/12/07 00:56:41;;;;;;;3.45;2.00;;;154.30;2073.60;;;;;;5076372;28;20036;-74
2020/12/07 00:59:08;;;;;;;11.18;2.28;;;154.30;2099.20;;;;;;5076091;28;20519;-74
2020/12/07 01:01:34;;;;;;;5.97;2.00;;;154.30;2073.60;;;;;;5075801;28;20394;-74
2020/12/07 01:03:59;;;;;;;4.05;1.63;;;154.30;2073.60;;;;;;5075427;28;20069;-73
2020/12/07 01:06:30;;;;;;;6.03;1.98;;;154.30;2073.60;;;;;;5076460;28;20303;-73
2020/12/07 01:08:56;;;;;;;9.15;2.42;;;154.30;2073.60;;;;;;5075417;28;20017;-73
2020/12/07 01:11:22;;;;;;;5.70;1.90;;;154.30;2073.60;;;;;;5075790;28;20032;-74
2020/12/07 01:13:48;;;;;;;3.90;1.67;;;154.20;2073.60;;;;;;5076172;28;20039;-73
2020/12/07 01:16:21;;;;;;;15.10;2.60;;;154.20;2073.60;;;;;;5075375;28;20028;-73
2020/12/07 01:18:47;;;;;;;4.95;2.22;;;154.30;2073.60;;;;;;5075576;28;20074;-74
2020/12/07 01:21:15;;;;;;;4.25;1.90;;;154.20;2073.60;;;;;;5076012;28;20040;-73
2020/12/07 01:23:41;;;;;;;4.05;1.67;;;154.20;2073.60;;;;;;5075580;28;20107;-73
2020/12/07 01:26:08;;;;;;;7.65;1.90;;;154.20;2073.60;;;;;;5075605;28;20024;-73
2020/12/07 01:28:35;;;;;;;3.97;1.80;;;154.20;2073.60;;;;;;5075700;28;20104;-73
2020/12/07 01:31:01;;;;;;;7.70;2.20;;;154.20;2073.60;;;;;;5075648;28;20027;-74
2020/12/07 01:33:27;;;;;;;4.22;1.73;;;154.30;2073.60;;;;;;5075719;28;20067;-74
2020/12/07 01:35:52;;;;;;;3.70;1.83;;;154.30;2073.60;;;;;;5075970;28;20056;-74
2020/12/07 01:38:18;;;;;;;5.20;1.55;;;154.20;2073.60;;;;;;5075468;28;20024;-73
2020/12/07 01:40:44;;;;;;;3.35;2.03;;;154.30;2073.60;;;;;;5075301;28;20383;-74
2020/12/07 01:43:10;;;;;;;4.38;1.85;;;154.30;2073.60;;;;;;5075286;28;20033;-73
2020/12/07 01:45:35;;;;;;;7.22;1.80;;;154.30;2048.00;;;;;;5075037;28;20031;-73
2020/12/07 01:48:01;;;;;;;6.50;2.33;;;154.40;2048.00;;;;;;5075017;28;20036;-73
2020/12/07 01:50:27;;;;;;;3.85;1.88;;;154.40;2048.00;;;;;;5075283;28;20024;-74
2020/12/07 01:52:53;;;;;;;3.88;1.70;;;154.40;2048.00;;;;;;5075323;28;20040;-73
2020/12/07 01:55:20;;;;;;;4.88;2.28;;;154.50;2048.00;;;;;;5075547;28;20047;-73
2020/12/07 01:57:46;;;;;;;4.20;1.83;;;154.40;2048.00;;;;;;5074831;28;20031;-73
2020/12/07 02:00:11;;;;;;;3.92;1.90;;;154.40;2048.00;;;;;;5075098;28;20024;-73
2020/12/07 02:02:37;;;;;;;4.93;1.80;;;154.40;2048.00;;;;;;5075070;28;20090;-74
2020/12/07 02:05:03;;;;;;;3.75;2.03;;;154.40;2048.00;;;;;;5075217;28;20441;-74
2020/12/07 02:07:29;;;;;;;6.30;2.00;;;154.40;2048.00;;;;;;5074906;28;20442;-73
2020/12/07 02:09:55;;;;;;;4.43;2.00;;;154.40;2048.00;;;;;;5057256;28;20024;-73
2020/12/07 02:12:20;;;;;;;3.40;2.08;;;154.40;2048.00;;;;;;5074721;28;20036;-74
2020/12/07 02:14:46;;;;;;;9.38;2.10;;;154.40;2048.00;;;;;;5075075;28;20326;-73
2020/12/07 02:17:12;;;;;;;4.55;2.00;;;154.40;2048.00;;;;;;5074730;28;20028;-75
2020/12/07 02:19:38;;;;;;;3.22;1.85;;;154.30;2048.00;;;;;;5074499;28;20032;-74
2020/12/07 02:22:03;;;;;;;4.03;2.05;;;154.30;2048.00;;;;;;5056763;28;20043;-73
2020/12/07 02:24:29;;;;;;;5.45;2.25;;;154.40;2048.00;;;;;;5075016;28;20024;-73
2020/12/07 02:26:55;;;;;;;4.40;2.70;;;154.40;2048.00;;;;;;5074583;28;20029;-74
2020/12/07 02:29:28;;;;;;;6.57;2.40;;;154.40;2048.00;;;;;;5075087;28;20107;-73
2020/12/07 02:32:17;;;;;;;4.90;2.58;;;154.50;2048.00;;;;;;5074746;28;20407;-73
2020/12/07 02:34:43;;;;;;;4.03;2.50;;;154.50;2048.00;;;;;;5074533;28;20317;-73
2020/12/07 02:37:09;;;;;;;3.60;2.05;;;154.50;2048.00;;;;;;5074773;28;20043;-73
2020/12/07 02:39:36;;;;;;;7.25;2.10;;;154.50;2048.00;;;;;;5074210;28;20351;-73
2020/12/07 02:42:05;;;;;;;3.90;2.28;;;154.50;2048.00;;;;;;5074126;28;20052;-74
2020/12/07 02:44:31;;;;;;;5.75;2.10;;;154.50;2048.00;;;;;;5074765;28;20419;-74
2020/12/07 02:46:58;;;;;;;4.07;2.53;;;179.20;2048.00;;;;;;5074172;28;20083;-74
2020/12/07 02:49:25;;;;;;;4.43;1.95;;;179.20;2048.00;;;;;;5074458;28;20025;-73
2020/12/07 02:51:51;;;;;;;7.57;3.17;;;179.20;2022.40;;;;;;5074389;28;20342;-74
2020/12/07 02:54:17;;;;;;;4.07;2.20;;;179.20;2022.40;;;;;;5074545;28;20032;-73
2020/12/07 02:56:43;;;;;;;3.90;1.90;;;179.20;2048.00;;;;;;5074475;28;20032;-74
2020/12/07 02:59:09;;;;;;;3.47;1.80;;;179.20;2048.00;;;;;;5074524;28;20335;-74
2020/12/07 03:01:35;;;;;;;4.80;1.90;;;154.50;2048.00;;;;;;5074520;28;20423;-73
2020/12/07 03:04:01;;;;;;;2.92;1.52;;;179.20;2048.00;;;;;;5074082;28;20107;-73
2020/12/07 03:06:27;;;;;;;3.65;1.83;;;179.20;2022.40;;;;;;5074704;28;20025;-74
2020/12/07 03:08:54;;;;;;;5.75;2.13;;;154.50;2022.40;;;;;;5074381;28;20031;-74
2020/12/07 03:11:21;;;;;;;3.75;2.10;;;154.50;2048.00;;;;;;5074357;28;20450;-74
2020/12/07 03:13:47;;;;;;;5.45;1.98;;;179.20;2048.00;;;;;;5074406;28;20024;-74
2020/12/07 03:16:13;;;;;;;4.68;1.60;;;179.20;2048.00;;;;;;5074221;28;20084;-75
2020/12/07 03:18:39;;;;;;;6.05;1.98;;;179.20;2048.00;;;;;;5074205;28;20064;-74
2020/12/07 03:21:05;;;;;;;4.32;1.83;;;179.20;2022.40;;;;;;5075722;28;20078;-74
2020/12/07 03:23:31;;;;;;;9.98;1.92;;;179.20;2022.40;;;;;;5096589;28;20321;-74
2020/12/07 03:25:57;;;;;;;3.33;1.60;;;179.20;2022.40;;;;;;5096846;28;20024;-73
2020/12/07 03:28:23;;;;;;;4.22;1.75;;;179.20;2022.40;;;;;;5097083;28;20031;-74
2020/12/07 03:30:48;;;;;;;3.25;1.75;;;179.20;2022.40;;;;;;5096416;28;20097;-73
2020/12/07 03:33:14;;;;;;;5.68;1.60;;;179.20;2022.40;;;;;;5096788;28;20027;-74
2020/12/07 03:35:40;;;;;;;3.72;1.75;;;179.20;2022.40;;;;;;5097001;28;20027;-74
2020/12/07 03:38:06;;;;;;;5.20;1.70;;;179.20;2022.40;;;;;;5096943;28;20024;-73
2020/12/07 03:40:33;;;;;;;5.22;1.92;;;179.20;2022.40;;;;;;5100240;28;20020;-73
2020/12/07 03:43:00;;;;;;;4.03;1.45;;;154.50;2022.40;;;;;;5081958;28;20029;-73
2020/12/07 03:45:26;;;;;;;3.88;1.65;;;154.50;2022.40;;;;;;5100309;28;20027;-73
2020/12/07 03:47:52;;;;;;;3.78;1.33;;;154.50;2022.40;;;;;;5100506;28;20047;-73
2020/12/07 03:50:18;;;;;;;2.88;1.60;;;154.50;2022.40;;;;;;5100199;28;20024;-73
2020/12/07 03:52:44;;;;;;;3.10;1.50;;;179.20;2022.40;;;;;;5099722;28;20031;-74
2020/12/07 03:55:10;;;;;;;3.53;1.90;;;154.50;2022.40;;;;;;5100150;28;20028;-73
2020/12/07 03:57:36;;;;;;;18.25;2.50;;;154.50;2022.40;;;;;;5099534;28;20027;-73
2020/12/07 04:00:04;;;;;;;3.35;1.70;;;154.50;2022.40;;;;;;5099608;28;20406;-74
2020/12/07 04:02:30;;;;;;;3.28;1.85;;;154.40;2022.40;;;;;;5099737;28;20035;-73
2020/12/07 04:05:21;;;;;;;4.63;1.70;;;154.40;2048.00;;;;;;5099891;28;20486;-73
2020/12/07 04:07:44;;;;;;;3.30;1.83;;;154.40;2022.40;;;;;;5098768;28;20027;-73
2020/12/07 04:10:10;;;;;;;3.20;1.90;;;154.30;2022.40;;;;;;5099987;28;20433;-73
2020/12/07 04:12:36;;;;;;;4.28;1.70;;;154.30;2048.00;;;;;;5099308;28;20338;-73
2020/12/07 04:15:02;;;;;;;4.38;1.98;;;154.40;2022.40;;;;;;5099732;28;20032;-73
2020/12/07 04:17:28;;;;;;;3.63;1.70;;;154.30;2048.00;;;;;;5099411;28;20046;-74
2020/12/07 04:19:54;;;;;;;5.65;1.67;;;154.30;2048.00;;;;;;5099103;28;20423;-73
2020/12/07 04:22:20;;;;;;;4.57;1.67;;;154.20;2048.00;;;;;;5099115;28;20342;-73
2020/12/07 04:24:46;;;;;;;5.28;1.80;;;154.20;2048.00;;;;;;5099543;28;20115;-73
2020/12/07 04:27:12;;;;;;;4.90;1.85;;;154.20;2048.00;;;;;;5099531;28;20023;-73
2020/12/07 04:29:37;;;;;;;4.50;1.70;;;154.10;2048.00;;;;;;5099731;28;20030;-73
2020/12/07 04:32:03;;;;;;;4.70;1.70;;;154.10;2048.00;;;;;;5098864;28;20074;-74
2020/12/07 04:34:29;;;;;;;2.67;1.42;;;154.10;2048.00;;;;;;5098460;28;20077;-74
2020/12/07 04:36:56;;;;;;;9.15;1.98;;;154.00;2048.00;;;;;;5098438;28;20020;-73
2020/12/07 04:39:21;;;;;;;4.35;1.73;;;154.00;2073.60;;;;;;5099133;28;20097;-74
2020/12/07 04:41:47;;;;;;;4.93;1.58;;;154.00;2073.60;;;;;;5098753;28;20438;-74
2020/12/07 04:44:13;;;;;;;3.10;1.60;;;154.00;2073.60;;;;;;5098458;28;20110;-74
2020/12/07 04:46:40;;;;;;;5.53;1.60;;;154.00;2073.60;;;;;;5097963;28;20418;-74
2020/12/07 04:49:06;;;;;;;3.35;1.67;;;153.90;2073.60;;;;;;5098685;28;20031;-74
2020/12/07 04:51:33;;;;;;;2.90;1.50;;;153.90;2073.60;;;;;;5098238;28;20024;-74
2020/12/07 04:54:00;;;;;;;3.67;1.55;;;154.00;2073.60;;;;;;5098482;28;20031;-74
2020/12/07 04:56:27;;;;;;;5.38;1.85;;;154.00;2048.00;;;;;;5098060;28;20024;-74
2020/12/07 04:58:55;;;;;;;5.45;1.52;;;154.10;2048.00;;;;;;5097787;28;20024;-74
2020/12/07 05:01:21;;;;;;;5.43;1.70;;;154.20;2048.00;;;;;;5098252;28;20028;-75
2020/12/07 05:03:46;;;;;;;2.97;1.67;;;154.20;2048.00;;;;;;5098617;28;20034;-74
2020/12/07 05:06:15;;;;;;;3.17;1.65;;;154.20;2048.00;;;;;;5098168;28;20049;-75
2020/12/07 05:08:41;;;;;;;3.33;1.88;;;154.20;2048.00;;;;;;5097972;28;20422;-73
2020/12/07 05:11:07;;;;;;;3.38;1.60;;;154.10;2048.00;;;;;;5098551;28;20034;-74
2020/12/07 05:13:40;;;;;;;3.08;1.55;;;154.00;2048.00;;;;;;5098622;28;20031;-74
2020/12/07 05:16:06;;;;;;;4.07;1.92;;;153.90;2073.60;;;;;;5098283;28;20380;-75
2020/12/07 05:18:33;;;;;;;3.28;1.20;;;153.90;2073.60;;;;;;5098536;28;20024;-74
2020/12/07 05:20:59;;;;;;;7.43;1.88;;;153.90;2048.00;;;;;;5098426;28;20055;-74
2020/12/07 05:23:25;;;;;;;1.88;1.20;;;153.90;2048.00;;;;;;5097429;28;20031;-74
2020/12/07 05:25:51;;;;;;;2.42;1.33;;;153.90;2048.00;;;;;;5098326;28;20027;-73
2020/12/07 05:28:23;;;;;;;4.53;1.40;;;153.90;2048.00;;;;;;5097823;28;20024;-74
2020/12/07 05:30:51;;;;;;;2.22;1.20;;;153.90;2048.00;;;;;;5098259;28;20020;-74
2020/12/07 05:33:18;;;;;;;3.85;1.27;;;153.90;2048.00;;;;;;5098235;28;20669;-74
2020/12/07 05:35:53;;;;;;;3.40;1.50;;;153.90;2048.00;;;;;;5097943;28;20490;-75
2020/12/07 05:38:19;;;;;;;2.38;1.30;;;153.90;2048.00;;;;;;5098479;28;20034;-74
2020/12/07 05:40:46;;;;;;;2.10;1.10;;;153.90;2048.00;;;;;;5097714;28;20111;-74
2020/12/07 05:43:12;;;;;;;3.67;1.20;;;154.00;2022.40;;;;;;5097617;28;20024;-75
2020/12/07 05:45:41;;;;;;;3.25;1.30;;;154.00;2022.40;;;;;;5097907;28;20020;-74
2020/12/07 05:48:09;;;;;;;4.63;1.45;;;154.00;2022.40;;;;;;5098273;28;20020;-75
2020/12/07 05:50:41;;;;;;;8.23;1.20;;;154.00;2022.40;;;;;;5097870;28;20031;-74
2020/12/07 05:53:07;;;;;;;12.05;6.78;;;153.90;2022.40;;;;;;5097376;28;20349;-74
2020/12/07 05:55:34;;;;;;;17.48;9.13;;;153.90;1996.80;;;;;;5097303;28;20032;-74
2020/12/07 05:58:05;;;;;;;25.77;21.58;;;153.90;2022.40;;;;;;5097519;28;20028;-74
2020/12/07 06:00:33;;;;;;;29.50;25.38;;;153.90;2022.40;;;;;;5096300;28;20020;-74
2020/12/07 06:03:00;;;;;;;3.42;2.80;;;153.80;2022.40;;;;;;5078914;28;20483;-75
2020/12/07 06:05:26;;;;;;;4.88;2.28;;;153.80;2022.40;;;;;;5097107;28;20098;-74
2020/12/07 06:08:09;;;;;;;3.20;1.30;;;153.90;2022.40;;;;;;5097962;28;20059;-74
2020/12/07 06:10:42;;;;;;;3.40;1.52;;;153.90;2022.40;;;;;;5097836;28;20111;-74
2020/12/07 06:13:13;;;;;;;2.78;1.40;;;153.90;2022.40;;;;;;5097913;28;20116;-74
2020/12/07 06:15:52;;;;;;;8.88;1.30;;;153.90;2022.40;;;;;;5097323;28;20024;-74
2020/12/07 06:18:29;;;;;;;2.42;1.30;;;153.90;2022.40;;;;;;5097531;28;20072;-74
2020/12/07 06:21:21;;;;;;;4.60;1.23;;;153.90;2022.40;;;;;;5097771;28;20118;-74
2020/12/07 06:23:48;;;;;;;2.63;1.67;;;153.90;2022.40;;;;;;5097503;28;20024;-75
2020/12/07 06:26:16;;;;;;;4.18;1.42;;;154.00;2022.40;;;;;;5097116;28;20032;-74
2020/12/07 06:28:44;;;;;;;2.40;1.40;;;154.00;2022.40;;;;;;5097676;28;20020;-74
2020/12/07 06:31:14;;;;;;;2.70;1.42;;;154.00;1996.80;;;;;;5097195;28;20024;-74
2020/12/07 06:33:54;;;;;;;6.55;1.77;;;154.00;1996.80;;;;;;5097354;28;20035;-73
2020/12/07 06:36:53;;;;;;;4.93;1.60;;;154.20;1996.80;;;;;;5097266;28;20414;-74
2020/12/07 06:39:19;;;;;;;3.85;1.38;;;154.30;1996.80;;;;;;5014957;28;20041;-74
2020/12/07 06:41:47;;;;;;;3.55;1.58;;;154.40;1971.20;;;;;;5015057;28;20050;-75
2020/12/07 06:44:20;;;;;;;4.00;1.85;;;154.40;1971.20;;;;;;5015053;28;20149;-74
2020/12/07 06:46:53;;;;;;;3.13;1.35;;;154.40;1971.20;;;;;;5015000;28;20029;-74
2020/12/07 06:49:26;;;;;;;4.38;2.67;;;154.50;1971.20;;;;;;5015178;28;20034;-74
2020/12/07 06:52:00;;;;;;;15.98;11.90;;;179.20;1971.20;;;;;;5013882;28;20038;-76
2020/12/07 06:57:22;;;;;;;11.55;7.95;;;179.30;1945.60;;;;;;5034169;28;20044;-74
2020/12/07 07:00:30;;;;;;;7.72;4.72;;;179.40;1945.60;;;;;;5033708;28;20032;-74
2020/12/07 07:02:58;;;;;;;9.03;4.67;;;179.50;1920.00;;;;;;4994457;28;20463;-75
2020/12/07 07:05:29;;;;;;;7.85;4.50;;;179.40;1920.00;;;;;;4994698;28;20065;-74
2020/12/07 07:07:56;;;;;;;12.80;8.70;;;179.50;1920.00;;;;;;4994568;28;20034;-75
2020/12/07 07:10:23;;;;;;;11.30;8.27;;;179.40;1920.00;;;;;;4994677;28;20030;-74
2020/12/07 07:12:50;;;;;;;4.40;3.45;;;179.40;1920.00;;;;;;4994835;28;20441;-75
2020/12/07 07:15:17;;;;;;;15.18;10.20;;;179.40;1920.00;;;;;;5011494;28;20045;-74
2020/12/07 07:17:45;;;;;;;10.93;9.75;;;179.40;1920.00;;;;;;5018361;28;20034;-76
2020/12/07 07:20:12;;;;;;;14.25;9.73;;;179.30;1920.00;;;;;;5036123;28;20065;-75
2020/12/07 07:22:44;;;;;;;8.52;6.80;;;179.20;1920.00;;;;;;5038048;28;20041;-73
2020/12/07 07:30:22;;;;;;;9.20;6.30;;;154.50;1920.00;;;;;;5037914;28;20072;-75
2020/12/07 07:32:50;;;;;;;11.32;7.32;;;154.40;1945.60;;;;;;5037736;28;20045;-75
2020/12/07 07:35:18;;;;;;;4.78;2.55;;;154.50;1945.60;;;;;;5037868;28;20111;-75
2020/12/07 07:37:44;;;;;;;3.30;2.15;;;154.40;1945.60;;;;;;5037758;28;20044;-76
2020/12/07 07:40:13;;;;;;;3.25;2.42;;;154.50;1945.60;;;;;;5091343;28;20036;-74
2020/12/07 07:42:56;;;;;;;6.80;2.17;;;154.50;1920.00;;;;;;5100388;28;20044;-75
2020/12/07 07:45:24;;;;;;;7.10;4.05;;;179.20;1920.00;;;;;;5100488;28;20035;-72
2020/12/07 08:16:59;;;;;;;5.45;1.70;;;179.60;1868.80;;;;;;5098793;28;20031;-76
2020/12/07 08:19:30;;;;;;;2.50;1.42;;;179.70;1843.20;;;;;;5099525;28;20050;-75
2020/12/07 08:22:10;;;;;;;2.60;1.50;;;179.60;1843.20;;;;;;5099673;28;20028;-75
2020/12/07 08:24:50;;;;;;;2.22;1.40;;;179.70;1843.20;;;;;;5098894;28;20027;-74
2020/12/07 08:27:15;;;;;;;3.97;3.05;;;179.80;1843.20;;;;;;5099644;28;20028;-75
2020/12/07 08:29:41;;;;;;;5.03;2.83;;;179.80;1843.20;;;;;;5098967;28;20026;-74
2020/12/07 08:32:23;;;;;;;8.38;1.70;;;179.80;1843.20;;;;;;5099074;28;20484;-75
2020/12/07 08:34:48;;;;;;;5.57;1.42;;;180.00;1817.60;;;;;;5099209;28;20035;-75
2020/12/07 08:37:14;;;;;;;4.30;1.48;;;180.10;1817.60;;;;;;5099345;28;20372;-74
2020/12/07 08:39:40;;;;;;;6.40;2.03;;;179.90;1817.60;;;;;;5098856;28;20031;-71
2020/12/07 08:42:06;;;;;;;3.10;1.67;;;179.90;1817.60;;;;;;5098541;28;20056;-73
2020/12/07 08:44:32;;;;;;;4.68;1.70;;;180.00;1817.60;;;;;;5098946;28;20331;-75
2020/12/07 08:46:57;;;;;;;3.75;2.42;;;179.80;1843.20;;;;;;5098740;28;20027;-74
2020/12/07 08:49:23;;;;;;;8.27;2.33;;;179.80;1843.20;;;;;;5098899;28;20028;-73
2020/12/07 08:51:49;;;;;;;4.18;2.00;;;179.80;1843.20;;;;;;5098368;28;20039;-74
2020/12/07 08:54:15;;;;;;;3.95;1.38;;;179.80;1817.60;;;;;;5098800;28;20422;-74
2020/12/07 08:56:41;;;;;;;3.78;2.00;;;179.70;1817.60;;;;;;5098768;28;20342;-75
2020/12/07 08:59:07;;;;;;;3.78;1.40;;;179.60;1843.20;;;;;;5098749;28;20334;-73
2020/12/07 09:01:33;;;;;;;3.33;1.70;;;179.40;1843.20;;;;;;5098372;28;20110;-73
2020/12/07 09:04:02;;;;;;;4.13;1.17;;;179.40;1843.20;;;;;;5098777;28;20115;-74
2020/12/07 09:06:27;;;;;;;7.40;1.38;;;179.40;1843.20;;;;;;5078190;28;20024;-74
2020/12/07 09:08:53;;;;;;;5.00;2.00;;;179.20;1843.20;;;;;;5096280;28;20131;-74
2020/12/07 09:11:19;;;;;;;6.45;1.05;;;179.30;1843.20;;;;;;5095989;28;20082;-74
2020/12/07 09:13:45;;;;;;;3.67;1.50;;;179.30;1817.60;;;;;;5096199;28;20398;-74
2020/12/07 09:16:11;;;;;;;4.32;1.00;;;179.30;1817.60;;;;;;5096101;28;20023;-74
2020/12/07 09:18:40;;;;;;;6.53;1.02;;;179.30;1817.60;;;;;;5095938;28;20479;-75
2020/12/07 09:21:07;;;;;;;3.92;1.05;;;179.30;1817.60;;;;;;5095917;28;20028;-74
2020/12/07 09:23:34;;;;;;;4.38;2.20;;;179.20;1817.60;;;;;;5095735;28;20031;-73
2020/12/07 09:26:04;;;;;;;6.30;1.98;;;154.50;1817.60;;;;;;5095856;28;20052;-74
2020/12/07 09:28:31;;;;;;;4.97;1.85;;;179.20;1817.60;;;;;;5096157;28;20055;-73
2020/12/07 09:30:56;;;;;;;1.80;0.98;;;179.20;1817.60;;;;;;5095581;28;20024;-74
2020/12/07 09:33:22;;;;;;;2.67;1.20;;;154.50;1817.60;;;;;;5096343;28;20039;-75
2020/12/07 09:35:48;;;;;;;3.63;1.60;;;154.50;1843.20;;;;;;5094569;28;20119;-73
2020/12/07 09:38:14;;;;;;;2.55;1.15;;;154.50;1843.20;;;;;;5095658;28;20032;-74
2020/12/07 09:40:40;;;;;;;4.78;1.90;;;154.40;1843.20;;;;;;5095007;28;20028;-74
2020/12/07 09:43:06;;;;;;;2.35;1.33;;;154.50;1843.20;;;;;;5095768;28;20043;-74
2020/12/07 09:45:32;;;;;;;6.25;1.30;;;154.40;1843.20;;;;;;5095694;28;20689;-74
2020/12/07 09:47:59;;;;;;;3.25;1.67;;;154.40;1843.20;;;;;;5095151;28;20450;-73
2020/12/07 09:50:25;;;;;;;5.60;1.90;;;154.40;1868.80;;;;;;5095291;28;20462;-73
2020/12/07 09:52:51;;;;;;;3.70;1.63;;;154.40;1868.80;;;;;;5095132;28;20160;-72
2020/12/07 09:55:16;;;;;;;3.15;1.98;;;154.30;1868.80;;;;;;5094697;28;20480;-74
2020/12/07 09:57:42;;;;;;;2.22;1.42;;;154.30;1894.40;;;;;;5095474;28;20024;-73
2020/12/07 10:00:09;;;;;;;4.63;1.98;;;154.20;1894.40;;;;;;5095224;28;20354;-72
2020/12/07 10:02:35;;;;;;;5.55;1.48;;;154.20;1894.40;;;;;;5095091;28;20035;-73
2020/12/07 10:05:02;;;;;;;3.28;1.75;;;154.20;1894.40;;;;;;5095565;28;20334;-73
2020/12/07 10:07:28;;;;;;;5.68;1.83;;;154.20;1894.40;;;;;;5095380;28;20020;-73
2020/12/07 10:09:54;;;;;;;4.47;1.38;;;154.20;1920.00;;;;;;5095083;28;20027;-72
2020/12/07 10:12:19;;;;;;;4.57;1.58;;;154.20;1920.00;;;;;;5095415;28;20032;-74
2020/12/07 10:14:45;;;;;;;3.33;1.20;;;154.30;1945.60;;;;;;5095168;28;20038;-73
2020/12/07 10:17:11;;;;;;;2.75;1.52;;;154.40;1894.40;;;;;;5094577;28;20024;-74
2020/12/07 10:19:37;;;;;;;2.05;1.30;;;154.40;1894.40;;;;;;5094957;28;20028;-73
2020/12/07 10:22:04;;;;;;;3.38;1.92;;;154.50;1894.40;;;;;;5095434;28;20039;-74
2020/12/07 10:24:31;;;;;;;7.13;3.55;;;179.30;1843.20;;;;;;5094518;28;20110;-73
2020/12/07 10:26:57;;;;;;;3.85;1.70;;;179.50;1817.60;;;;;;5095003;28;20107;-74
2020/12/07 10:29:23;;;;;;;2.67;1.10;;;179.60;1817.60;;;;;;5095172;28;20118;-74
2020/12/07 10:31:49;;;;;;;4.05;1.27;;;179.80;1792.00;;;;;;5076015;28;20414;-73
2020/12/07 10:34:14;;;;;;;1.83;1.00;;;180.00;1766.40;;;;;;5094859;28;20031;-74
2020/12/07 10:36:45;;;;;;;3.08;1.20;;;180.10;1740.80;;;;;;5094933;28;20028;-75
2020/12/07 10:39:12;;;;;;;2.63;1.85;;;180.10;1766.40;;;;;;5094599;28;20047;-72
2020/12/07 10:41:39;;;;;;;5.30;3.78;;;180.10;1766.40;;;;;;5094526;28;20425;-75
2020/12/07 10:44:04;;;;;;;12.52;6.07;;;180.00;1792.00;;;;;;5093947;28;20337;-75
2020/12/07 10:46:30;;;;;;;9.82;6.78;;;179.90;1792.00;;;;;;5093763;28;20073;-74
2020/12/07 10:48:56;;;;;;;7.65;5.35;;;179.80;1792.00;;;;;;5097755;28;20107;-73
2020/12/07 10:51:22;;;;;;;7.93;4.20;;;179.60;1843.20;;;;;;5098332;28;20032;-73
2020/12/07 10:53:48;;;;;;;2.70;1.65;;;179.60;1868.80;;;;;;5098739;28;20131;-73
2020/12/07 10:56:15;;;;;;;13.50;9.73;;;179.30;1868.80;;;;;;5098409;28;20098;-72
2020/12/07 10:58:42;;;;;;;3.88;2.28;;;179.40;1920.00;;;;;;5098805;28;20020;-72
2020/12/07 11:01:09;;;;;;;4.82;3.55;;;179.20;1920.00;;;;;;5098742;28;20115;-71
2020/12/07 11:03:35;;;;;;;9.70;7.38;;;154.50;1971.20;;;;;;5098943;28;20115;-71
2020/12/07 11:06:13;;;;;;;4.10;2.30;;;154.50;1971.20;;;;;;5098085;28;20410;-71
2020/12/07 11:08:51;;;;;;;7.05;5.13;;;154.40;1971.20;;;;;;5098549;28;20409;-72
2020/12/07 11:11:17;;;;;;;7.20;3.22;;;154.00;2022.40;;;;;;5097223;28;20094;-72
2020/12/07 11:13:43;;;;;;;9.68;7.35;;;154.30;1971.20;;;;;;5098157;28;20024;-73
2020/12/07 11:16:16;;;;;;;21.45;7.43;;;154.50;1945.60;;;;;;5098632;28;20043;-73
2020/12/07 11:18:42;;;;;;;1.85;0.90;;;154.20;2022.40;;;;;;5097799;28;20032;-73
2020/12/07 11:21:14;;;;;;;5.50;3.38;;;154.10;1971.20;;;;;;5098328;28;20032;-74
2020/12/07 11:23:43;;;;;;;5.53;1.85;;;154.20;2022.40;;;;;;5098003;28;20016;-74
2020/12/07 11:26:10;;;;;;;5.03;2.72;;;153.80;2022.40;;;;;;5097453;28;20028;-73
2020/12/07 11:28:38;;;;;;;6.05;4.50;;;154.10;2048.00;;;;;;5098505;28;20089;-74
2020/12/07 11:31:05;;;;;;;4.30;1.15;;;154.20;1996.80;;;;;;5097660;28;20028;-75
2020/12/07 11:33:31;;;;;;;8.75;6.43;;;153.90;1971.20;;;;;;5097625;28;20040;-74
2020/12/07 11:35:57;;;;;;;10.45;3.25;;;154.20;2022.40;;;;;;5098223;28;20024;-75
2020/12/07 11:38:25;;;;;;;6.25;2.30;;;153.90;2048.00;;;;;;5098401;28;20020;-74
2020/12/07 11:41:12;;;;;;;5.50;3.47;;;153.90;2022.40;;;;;;5098073;28;20048;-74
2020/12/07 11:43:49;;;;;;;3.58;2.17;;;154.00;2073.60;;;;;;5097825;28;20028;-75
2020/12/07 11:46:31;;;;;;;7.65;3.78;;;153.90;2048.00;;;;;;5098262;28;20407;-75
2020/12/07 11:48:57;;;;;;;2.63;1.60;;;153.90;2073.60;;;;;;5097345;28;20039;-73
2020/12/07 11:51:27;;;;;;;7.85;3.00;;;154.00;2048.00;;;;;;5097943;28;20085;-74
2020/12/07 11:53:55;;;;;;;13.48;7.13;;;153.90;2073.60;;;;;;5097423;28;20399;-74
2020/12/07 11:56:38;;;;;;;8.52;4.50;;;153.60;2150.40;;;;;;5097206;28;20024;-75
2020/12/07 11:59:05;;;;;;;13.55;7.43;;;153.60;2124.80;;;;;;5096660;28;20324;-75
2020/12/07 12:01:32;;;;;;;8.18;6.07;;;153.90;2124.80;;;;;;5097414;28;20036;-73
2020/12/07 12:03:58;;;;;;;3.10;2.80;;;154.20;2073.60;;;;;;5097824;28;20119;-72
2020/12/07 12:06:26;;;;;;;5.60;3.42;;;154.20;2022.40;;;;;;5097914;28;20028;-74
2020/12/07 12:08:56;;;;;;;14.75;6.82;;;154.30;2073.60;;;;;;5097403;28;20031;-73
2020/12/07 12:11:30;;;;;;;65.80;31.63;;;154.40;2022.40;;;;;;5097656;28;20587;-74
2020/12/07 12:13:56;;;;;;;4.97;3.53;;;154.50;2022.40;;;;;;5097315;28;20036;-74
2020/12/07 12:16:24;;;;;;;4.57;3.30;;;179.20;1996.80;;;;;;5097062;28;20030;-73
2020/12/07 12:18:51;;;;;;;0.75;0.60;;;154.30;2022.40;;;;;;5096755;28;20032;-73
2020/12/07 12:21:19;;;;;;;4.13;3.70;;;154.30;1996.80;;;;;;5097440;28;20058;-73
2020/12/07 12:23:45;;;;;;;7.88;4.68;;;154.40;1996.80;;;;;;5078409;28;20083;-73
2020/12/07 12:26:13;;;;;;;2.38;1.33;;;154.40;2022.40;;;;;;5096809;28;20343;-73
2020/12/07 12:28:39;;;;;;;1.67;1.00;;;154.40;1996.80;;;;;;5096892;28;20035;-72
2020/12/07 12:31:06;;;;;;;4.80;4.18;;;154.40;1971.20;;;;;;5097027;28;20042;-73
2020/12/07 12:33:32;;;;;;;4.03;2.58;;;154.30;1971.20;;;;;;5097354;28;20075;-73
2020/12/07 12:35:58;;;;;;;2.53;1.70;;;154.30;1971.20;;;;;;5096534;28;20142;-73
2020/12/07 12:38:24;;;;;;;4.95;2.63;;;154.10;1996.80;;;;;;5096343;28;20078;-73
2020/12/07 12:40:50;;;;;;;6.35;2.75;;;154.00;2022.40;;;;;;5096521;28;20055;-74
2020/12/07 12:43:16;;;;;;;1.73;1.10;;;154.20;1996.80;;;;;;5096457;28;20032;-76
2020/12/07 12:45:42;;;;;;;3.88;0.77;;;154.10;1971.20;;;;;;5096517;28;20031;-74
2020/12/07 12:48:08;;;;;;;1.20;0.80;;;154.10;1945.60;;;;;;5096160;28;20434;-73
2020/12/07 12:50:34;;;;;;;0.65;0.57;;;153.90;1996.80;;;;;;5096075;28;20024;-74
2020/12/07 12:53:00;;;;;;;3.60;1.67;;;154.00;1996.80;;;;;;5095870;28;20024;-73
2020/12/07 12:55:26;;;;;;;2.50;0.82;;;153.80;1996.80;;;;;;5096537;28;20028;-72